地図

経路データ

SID SEASON NUMBER BASIN SUBBASIN NAME ISO_TIME NATURE LAT LON WMO_WIND WMO_PRES WMO_AGENCY TRACK_TYPE DIST2LAND LANDFALL IFLAG USA_AGENCY USA_ATCF_ID USA_LAT USA_LON USA_RECORD USA_STATUS USA_WIND USA_PRES USA_SSHS USA_R34_NE USA_R34_SE USA_R34_SW USA_R34_NW USA_R50_NE USA_R50_SE USA_R50_SW USA_R50_NW USA_R64_NE USA_R64_SE USA_R64_SW USA_R64_NW USA_POCI USA_ROCI USA_RMW USA_EYE TOKYO_LAT TOKYO_LON TOKYO_GRADE TOKYO_WIND TOKYO_PRES TOKYO_R50_DIR TOKYO_R50_LONG TOKYO_R50_SHORT TOKYO_R30_DIR TOKYO_R30_LONG TOKYO_R30_SHORT TOKYO_LAND CMA_LAT CMA_LON CMA_CAT CMA_WIND CMA_PRES HKO_LAT HKO_LON HKO_CAT HKO_WIND HKO_PRES NEWDELHI_LAT NEWDELHI_LON NEWDELHI_GRADE NEWDELHI_WIND NEWDELHI_PRES NEWDELHI_CI NEWDELHI_DP NEWDELHI_POCI REUNION_LAT REUNION_LON REUNION_TYPE REUNION_WIND REUNION_PRES REUNION_TNUM REUNION_CI REUNION_RMW REUNION_R34_NE REUNION_R34_SE REUNION_R34_SW REUNION_R34_NW REUNION_R50_NE REUNION_R50_SE REUNION_R50_SW REUNION_R50_NW REUNION_R64_NE REUNION_R64_SE REUNION_R64_SW REUNION_R64_NW BOM_LAT BOM_LON BOM_TYPE BOM_WIND BOM_PRES BOM_TNUM BOM_CI BOM_RMW BOM_R34_NE BOM_R34_SE BOM_R34_SW BOM_R34_NW BOM_R50_NE BOM_R50_SE BOM_R50_SW BOM_R50_NW BOM_R64_NE BOM_R64_SE BOM_R64_SW BOM_R64_NW BOM_ROCI BOM_POCI BOM_EYE BOM_POS_METHOD BOM_PRES_METHOD NADI_LAT NADI_LON NADI_CAT NADI_WIND NADI_PRES WELLINGTON_LAT WELLINGTON_LON WELLINGTON_WIND WELLINGTON_PRES DS824_LAT DS824_LON DS824_STAGE DS824_WIND DS824_PRES TD9636_LAT TD9636_LON TD9636_STAGE TD9636_WIND TD9636_PRES TD9635_LAT TD9635_LON TD9635_WIND TD9635_PRES TD9635_ROCI NEUMANN_LAT NEUMANN_LON NEUMANN_CLASS NEUMANN_WIND NEUMANN_PRES MLC_LAT MLC_LON MLC_CLASS MLC_WIND MLC_PRES USA_GUST BOM_GUST BOM_GUST_PER REUNION_GUST REUNION_GUST_PER USA_SEAHGT USA_SEARAD_NE USA_SEARAD_SE USA_SEARAD_SW USA_SEARAD_NW STORM_SPEED STORM_DIR
1997182N32283 1997 46 NA NA ANA 1997-06-30 12:00:00 TS 32.0000 -77.2000 30 1013 hurdat_atl main 224 224 O_____________ hurdat_atl AL021997 32.0000 -77.2000 TD 30 1013 -1 5 88
1997182N32283 1997 46 NA NA ANA 1997-06-30 15:00:00 TS 32.0101 -76.9001 main 235 235 P_____________ AL021997 32.0101 -76.9001 TD 30 1012 -1 5 90
1997182N32283 1997 46 NA NA ANA 1997-06-30 18:00:00 TS 32.0000 -76.6000 30 1011 hurdat_atl main 248 248 O_____________ hurdat_atl AL021997 32.0000 -76.6000 TD 30 1011 -1 5 96
1997182N32283 1997 46 NA NA ANA 1997-06-30 21:00:00 TS 31.9574 -76.3000 main 264 264 P_____________ AL021997 31.9574 -76.3000 TD 30 1010 -1 5 101
1997182N32283 1997 46 NA NA ANA 1997-07-01 00:00:00 TS 31.9000 -76.0000 30 1009 hurdat_atl main 290 290 O_____________ hurdat_atl AL021997 31.9000 -76.0000 TD 30 1009 -1 5 102
1997182N32283 1997 46 NA NA ANA 1997-07-01 03:00:00 TS 31.8498 -75.7151 main 317 317 P_____________ AL021997 31.8498 -75.7151 TD 32 1007 -1 5 101
1997182N32283 1997 46 NA NA ANA 1997-07-01 06:00:00 TS 31.8000 -75.4000 35 1006 hurdat_atl main 337 337 O_____________ hurdat_atl AL021997 31.8000 -75.4000 TS 35 1006 0 6 98
1997182N32283 1997 46 NA NA ANA 1997-07-01 09:00:00 TS 31.7650 -75.0152 main 352 352 P_____________ AL021997 31.7650 -75.0152 TS 37 1005 0 7 98
1997182N32283 1997 46 NA NA ANA 1997-07-01 12:00:00 TS 31.7000 -74.6000 40 1004 hurdat_atl main 378 378 O_____________ hurdat_atl AL021997 31.7000 -74.6000 TS 40 1004 0 7 108
1997182N32283 1997 46 NA NA ANA 1997-07-01 15:00:00 TS 31.5423 -74.2072 main 415 415 P_____________ AL021997 31.5423 -74.2072 TS 40 1003 0 7 114
1997182N32283 1997 46 NA NA ANA 1997-07-01 18:00:00 TS 31.4000 -73.8000 40 1002 hurdat_atl main 445 445 O_____________ hurdat_atl AL021997 31.4000 -73.8000 TS 40 1002 0 7 104
1997182N32283 1997 46 NA NA ANA 1997-07-01 21:00:00 TS 31.3549 -73.3575 main 467 467 P_____________ AL021997 31.3549 -73.3575 TS 40 1001 0 8 90
1997182N32283 1997 46 NA NA ANA 1997-07-02 00:00:00 TS 31.4000 -72.9000 40 1000 hurdat_atl main 497 497 O_____________ hurdat_atl AL021997 31.4000 -72.9000 TS 40 1000 0 8 78
1997182N32283 1997 46 NA NA ANA 1997-07-02 03:00:00 TS 31.5199 -72.4426 main 522 521 P_____________ AL021997 31.5199 -72.4426 TS 37 1000 0 8 69
1997182N32283 1997 46 NA NA ANA 1997-07-02 06:00:00 TS 31.7000 -72.0000 35 1000 hurdat_atl main 535 534 O_____________ hurdat_atl AL021997 31.7000 -72.0000 TS 35 1000 0 8 64
1997182N32283 1997 46 NA NA ANA 1997-07-02 09:00:00 TS 31.8774 -71.5848 main 548 548 P_____________ AL021997 31.8774 -71.5848 TS 35 1000 0 8 60
1997182N32283 1997 46 NA NA ANA 1997-07-02 12:00:00 TS 32.1000 -71.2000 35 1000 hurdat_atl main 565 565 O_____________ hurdat_atl AL021997 32.1000 -71.2000 TS 35 1000 0 8 52
1997182N32283 1997 46 NA NA ANA 1997-07-02 15:00:00 TS 32.3698 -70.8422 main 574 573 P_____________ AL021997 32.3698 -70.8422 TS 35 1000 0 8 45
1997182N32283 1997 46 NA NA ANA 1997-07-02 18:00:00 TS 32.7000 -70.5000 35 1000 hurdat_atl main 574 570 O_____________ hurdat_atl AL021997 32.7000 -70.5000 TS 35 1000 0 9 40
1997182N32283 1997 46 NA NA ANA 1997-07-02 21:00:00 TS 33.0775 -70.1424 main 578 572 P_____________ AL021997 33.0775 -70.1424 TS 35 1000 0 10 36
1997182N32283 1997 46 NA NA ANA 1997-07-03 00:00:00 TS 33.5000 -69.8000 35 1001 hurdat_atl main 579 577 O_____________ hurdat_atl AL021997 33.5000 -69.8000 TS 35 1001 0 10 31
1997182N32283 1997 46 NA NA ANA 1997-07-03 03:00:00 TS 33.9498 -69.5070 main 585 581 P_____________ AL021997 33.9498 -69.5070 TS 35 1001 0 10 29
1997182N32283 1997 46 NA NA ANA 1997-07-03 06:00:00 TS 34.4000 -69.2000 35 1001 hurdat_atl main 592 592 O_____________ hurdat_atl AL021997 34.4000 -69.2000 TS 35 1001 0 10 34
1997182N32283 1997 46 NA NA ANA 1997-07-03 09:00:00 TS 34.7999 -68.8220 main 616 614 P_____________ AL021997 34.7999 -68.8220 TS 35 1001 0 10 39
1997182N32283 1997 46 NA NA ANA 1997-07-03 12:00:00 TS 35.2000 -68.4000 35 1002 hurdat_atl main 644 644 O_____________ hurdat_atl AL021997 35.2000 -68.4000 TS 35 1002 0 11 39
1997182N32283 1997 46 NA NA ANA 1997-07-03 15:00:00 TS 35.6495 -67.9869 main 675 656 P_____________ AL021997 35.6495 -67.9869 TS 32 1002 -1 12 39
1997182N32283 1997 46 NA NA ANA 1997-07-03 18:00:00 TS 36.1000 -67.5000 30 1002 hurdat_atl main 659 633 O_____________ hurdat_atl AL021997 36.1000 -67.5000 TD 30 1002 -1 12 45
1997182N32283 1997 46 NA NA ANA 1997-07-03 21:00:00 TS 36.5070 -66.9091 main 637 621 P_____________ AL021997 36.5070 -66.9091 TD 27 1002 -1 13 53
1997182N32283 1997 46 NA NA ANA 1997-07-04 00:00:00 TS 36.9000 -66.2000 25 1003 hurdat_atl main 625 620 O_____________ hurdat_atl AL021997 36.9000 -66.2000 TD 25 1003 -1 14 56
1997182N32283 1997 46 NA NA ANA 1997-07-04 03:00:00 TS 37.3068 -65.4093 main 628 624 P_____________ AL021997 37.3068 -65.4093 TD 25 1003 -1 16 59
1997182N32283 1997 46 NA NA ANA 1997-07-04 06:00:00 ET 37.7000 -64.5000 25 1003 hurdat_atl main 646 624 O_____________ hurdat_atl AL021997 37.7000 -64.5000 EX 25 1003 -4 16 64
1997182N32283 1997 46 NA NA ANA 1997-07-04 09:00:00 ET 38.0255 -63.5364 main 630 613 P_____________ AL021997 38.0255 -63.5364 EX 25 1003 -4 18 67
1997182N32283 1997 46 NA NA ANA 1997-07-04 12:00:00 ET 38.4000 -62.4000 25 1004 hurdat_atl main 617 613 O_____________ hurdat_atl AL021997 38.4000 -62.4000 EX 25 1004 -4 22 67
1997182N32283 1997 46 NA NA ANA 1997-07-04 15:00:00 ET 38.8935 -60.9069 main 629 629 P_____________ AL021997 38.8935 -60.9069 EX 25 1004 -4 25 64
1997182N32283 1997 46 NA NA ANA 1997-07-04 18:00:00 ET 39.5000 -59.5000 25 1004 hurdat_atl main 638 592 O_____________ hurdat_atl AL021997 39.5000 -59.5000 EX 25 1004 -4 22 53
1997182N32283 1997 46 NA NA ANA 1997-07-04 21:00:00 ET 40.2175 -58.5901 main 592 529 P_____________ AL021997 40.2175 -58.5901 EX 25 1004 -4 19 37
1997182N32283 1997 46 NA NA ANA 1997-07-05 00:00:00 ET 41.0000 -58.0000 25 1005 hurdat_atl main 529 O_____________ hurdat_atl AL021997 41.0000 -58.0000 EX 25 1005 -4 18 30

IBTrACS Databaseについて

本データベースは、米国NOAAが公開する1842年以降の世界の熱帯低気圧のベストトラックデータアーカイブInternational Best Track Archive for Climate Stewardship (IBTrACS)を、ウェブで閲覧しやすい形式に変換したものです。

最終更新日:2021-12-03